Time;durP1;ratioP1;P1;durP2;ratioP2;P2;SDS_P1;SDS_P2;PMS_P1;PMS_P2;Temp;Humidity;BMP_temperature;BMP_pressure;BME280_temperature;BME280_humidity;BME280_pressure;Samples;Min_cycle;Max_cycle;Signal;HPM_P1;HPM_P2
2021/01/21 00:00:06;;;;;;;2.15;1.95;;;18.60;45.80;;;;;;5084410;28;20446;-44
2021/01/21 00:02:33;;;;;;;2.47;1.92;;;18.60;45.80;;;;;;5079031;28;20173;-43
2021/01/21 00:05:00;;;;;;;2.30;2.00;;;18.60;45.80;;;;;;5085477;28;20071;-43
2021/01/21 00:07:27;;;;;;;2.15;1.70;;;18.60;45.80;;;;;;5082361;28;20131;-45
2021/01/21 00:09:53;;;;;;;2.03;1.67;;;18.60;45.80;;;;;;5081634;28;20051;-40
2021/01/21 00:12:20;;;;;;;2.92;2.20;;;18.60;45.80;;;;;;5086163;28;20048;-42
2021/01/21 00:14:46;;;;;;;2.35;1.88;;;18.60;46.40;;;;;;5086614;28;20079;-40
2021/01/21 00:17:13;;;;;;;2.17;1.70;;;18.60;45.80;;;;;;5083072;28;20083;-40
2021/01/21 00:19:40;;;;;;;2.30;1.90;;;18.60;45.80;;;;;;5085473;28;20094;-40
2021/01/21 00:22:06;;;;;;;2.35;1.90;;;18.60;45.80;;;;;;5089889;28;20098;-40
2021/01/21 00:24:33;;;;;;;2.47;2.00;;;18.60;45.80;;;;;;5086267;28;20044;-41
2021/01/21 00:27:00;;;;;;;2.17;1.80;;;18.60;45.80;;;;;;5085642;28;20118;-42
2021/01/21 00:29:26;;;;;;;2.30;2.08;;;18.60;45.80;;;;;;5091674;28;20080;-44
2021/01/21 00:31:53;;;;;;;2.13;1.90;;;18.60;45.90;;;;;;5092136;28;20036;-40
2021/01/21 00:34:20;;;;;;;2.58;1.92;;;18.60;45.90;;;;;;5087866;28;20052;-40
2021/01/21 00:36:47;;;;;;;2.65;2.00;;;18.60;45.80;;;;;;5084216;28;20044;-40
2021/01/21 00:39:13;;;;;;;2.17;1.83;;;18.60;45.80;;;;;;5083820;28;20056;-41
2021/01/21 00:41:40;;;;;;;2.65;2.20;;;18.60;45.80;;;;;;5081115;28;20052;-42
2021/01/21 00:44:06;;;;;;;2.03;1.67;;;18.60;45.80;;;;;;5081472;28;20056;-41
2021/01/21 00:46:33;;;;;;;3.08;2.17;;;18.60;45.80;;;;;;5087614;28;20139;-41
2021/01/21 00:49:00;;;;;;;2.55;2.17;;;18.60;45.80;;;;;;5090448;28;20080;-40
2021/01/21 00:51:26;;;;;;;2.13;1.77;;;18.60;45.80;;;;;;5080684;28;20051;-40
2021/01/21 00:53:53;;;;;;;2.55;2.13;;;18.60;45.80;;;;;;5091784;28;20044;-40
2021/01/21 00:56:20;;;;;;;2.67;2.20;;;18.60;45.80;;;;;;5083724;28;20064;-42
2021/01/21 00:58:46;;;;;;;2.20;1.92;;;18.60;45.80;;;;;;5085110;28;20131;-41
2021/01/21 01:01:13;;;;;;;2.22;1.75;;;18.60;45.80;;;;;;5090026;28;20522;-40
2021/01/21 01:03:40;;;;;;;2.70;2.20;;;18.60;45.80;;;;;;5083993;28;20057;-40
2021/01/21 01:06:07;;;;;;;2.22;2.00;;;18.60;45.80;;;;;;5085205;28;20045;-41
2021/01/21 01:08:34;;;;;;;2.63;2.00;;;18.60;45.80;;;;;;5086177;28;20049;-42
2021/01/21 01:11:02;;;;;;;2.10;1.90;;;18.60;45.80;;;;;;5088136;28;20040;-44
2021/01/21 01:13:29;;;;;;;2.75;2.25;;;18.50;45.70;;;;;;5085491;28;20197;-40
2021/01/21 01:15:55;;;;;;;2.35;2.00;;;18.60;45.80;;;;;;5085512;28;20434;-40
2021/01/21 01:18:22;;;;;;;2.47;1.90;;;18.60;45.80;;;;;;5090280;28;20044;-40
2021/01/21 01:20:49;;;;;;;2.40;1.70;;;18.60;45.80;;;;;;5087460;28;20067;-45
2021/01/21 01:23:15;;;;;;;2.67;2.08;;;18.60;45.80;;;;;;5092047;28;20087;-40
2021/01/21 01:25:42;;;;;;;2.05;1.80;;;18.60;45.80;;;;;;5076662;28;20052;-40
2021/01/21 01:28:09;;;;;;;2.55;2.00;;;18.60;45.80;;;;;;5080329;28;20044;-40
2021/01/21 01:30:36;;;;;;;2.60;2.00;;;18.60;45.80;;;;;;5087503;28;20048;-40
2021/01/21 01:33:03;;;;;;;2.60;2.08;;;18.50;46.30;;;;;;5083125;28;20040;-40
2021/01/21 01:35:30;;;;;;;2.45;2.10;;;18.60;45.80;;;;;;5081406;28;20093;-41
2021/01/21 01:37:56;;;;;;;2.60;2.22;;;18.50;45.70;;;;;;5085300;28;20466;-40
2021/01/21 01:40:23;;;;;;;2.35;1.98;;;18.50;45.70;;;;;;5079911;28;20454;-40
2021/01/21 01:42:49;;;;;;;2.08;1.85;;;18.50;45.70;;;;;;5090551;28;20052;-41
2021/01/21 01:45:16;;;;;;;2.15;1.83;;;18.50;45.70;;;;;;5082630;28;20044;-41
2021/01/21 01:47:45;;;;;;;2.28;2.05;;;18.60;45.70;;;;;;5086640;28;20070;-41
2021/01/21 01:50:13;;;;;;;2.83;2.13;;;18.50;45.70;;;;;;5088474;28;20097;-40
2021/01/21 01:52:43;;;;;;;2.05;1.80;;;18.50;45.70;;;;;;5090868;28;20066;-42
2021/01/21 01:55:15;;;;;;;2.50;2.08;;;18.50;45.70;;;;;;5091550;28;20392;-41
2021/01/21 01:57:48;;;;;;;2.53;2.13;;;18.50;45.70;;;;;;5084258;28;20098;-40
2021/01/21 02:00:16;;;;;;;2.90;2.15;;;18.50;45.70;;;;;;5082348;28;20209;-40
2021/01/21 02:02:46;;;;;;;2.70;2.13;;;18.50;45.70;;;;;;5082456;28;20101;-45
2021/01/21 02:05:13;;;;;;;2.60;2.10;;;18.50;45.70;;;;;;5084740;28;20458;-40
2021/01/21 02:07:40;;;;;;;2.67;2.20;;;18.50;45.70;;;;;;5082968;28;20477;-40
2021/01/21 02:10:06;;;;;;;3.00;2.03;;;18.50;45.70;;;;;;5086055;28;20097;-39
2021/01/21 02:12:44;;;;;;;2.88;2.10;;;18.50;45.70;;;;;;5083943;28;20118;-40
2021/01/21 02:15:48;;;;;;;2.28;2.00;;;18.50;45.70;;;;;;5083677;28;20060;-40
2021/01/21 02:18:24;;;;;;;2.17;1.70;;;18.50;45.70;;;;;;5079197;28;20043;-40
2021/01/21 02:21:18;;;;;;;2.60;2.10;;;18.50;45.70;;;;;;5081307;28;20048;-40
2021/01/21 02:24:10;;;;;;;2.40;1.95;;;18.50;45.70;;;;;;5077703;28;20463;-40
2021/01/21 02:26:57;;;;;;;2.47;2.20;;;18.50;45.70;;;;;;5082235;28;20048;-40
2021/01/21 02:29:29;;;;;;;2.42;2.00;;;18.50;45.70;;;;;;5089862;28;20048;-42
2021/01/21 02:32:08;;;;;;;2.47;2.00;;;18.50;45.70;;;;;;5082028;28;20547;-40
2021/01/21 02:34:48;;;;;;;2.83;1.93;;;18.50;45.70;;;;;;5076654;28;20056;-40
2021/01/21 02:37:22;;;;;;;2.90;2.15;;;18.50;45.70;;;;;;5082461;28;20279;-39
2021/01/21 02:39:52;;;;;;;2.40;2.03;;;18.50;45.70;;;;;;5083217;28;20101;-42
2021/01/21 02:42:18;;;;;;;2.42;1.98;;;18.50;45.70;;;;;;5082797;28;20449;-40
2021/01/21 02:44:47;;;;;;;2.60;2.28;;;18.40;45.60;;;;;;5083614;28;20052;-40
2021/01/21 02:47:15;;;;;;;3.17;2.30;;;18.40;45.60;;;;;;5080770;28;20080;-40
2021/01/21 02:49:43;;;;;;;3.17;2.40;;;18.50;45.70;;;;;;5087535;28;20483;-40
2021/01/21 02:52:31;;;;;;;2.83;2.20;;;18.50;45.70;;;;;;5085880;28;20040;-40
2021/01/21 02:55:44;;;;;;;2.60;2.10;;;18.50;45.70;;;;;;5087060;28;20048;-43
2021/01/21 02:58:21;;;;;;;2.83;2.00;;;18.50;45.70;;;;;;5004977;28;20050;-40
2021/01/21 03:00:51;;;;;;;2.33;1.70;;;18.40;45.60;;;;;;5014494;28;20134;-40
2021/01/21 03:03:22;;;;;;;2.42;2.00;;;18.50;45.70;;;;;;4997235;28;20050;-41
2021/01/21 03:05:58;;;;;;;3.10;2.20;;;18.50;45.70;;;;;;5016727;28;20069;-41
2021/01/21 03:08:28;;;;;;;2.72;1.98;;;18.40;45.60;;;;;;4996687;28;20050;-40
2021/01/21 03:11:11;;;;;;;2.17;1.98;;;18.50;45.70;;;;;;5005718;28;20589;-41
2021/01/21 03:13:40;;;;;;;2.90;2.03;;;18.50;45.70;;;;;;5008580;28;20085;-40
2021/01/21 03:16:07;;;;;;;2.47;2.05;;;18.50;45.70;;;;;;5008632;28;20045;-40
2021/01/21 03:18:33;;;;;;;2.55;2.00;;;18.40;45.60;;;;;;4981877;28;20039;-46
2021/01/21 03:21:00;;;;;;;2.53;1.90;;;18.40;45.60;;;;;;4999164;28;20046;-43
2021/01/21 03:23:27;;;;;;;2.70;2.00;;;18.40;45.60;;;;;;5000348;28;20041;-43
2021/01/21 03:25:54;;;;;;;2.20;1.92;;;18.50;45.70;;;;;;4999817;28;20215;-41
2021/01/21 03:28:21;;;;;;;2.63;2.10;;;18.40;45.60;;;;;;5008966;28;20084;-44
2021/01/21 03:30:48;;;;;;;2.90;2.40;;;18.50;45.70;;;;;;5010478;28;20042;-44
2021/01/21 03:33:14;;;;;;;2.30;2.10;;;18.40;45.50;;;;;;5017647;28;20062;-44
2021/01/21 03:35:41;;;;;;;2.78;1.98;;;18.40;45.50;;;;;;5080851;28;20048;-44
2021/01/21 03:38:08;;;;;;;2.03;1.67;;;18.40;45.60;;;;;;5082162;28;20063;-44
2021/01/21 03:40:34;;;;;;;2.75;2.15;;;18.40;45.50;;;;;;5088887;28;20047;-44
2021/01/21 03:43:01;;;;;;;2.10;1.85;;;18.40;45.50;;;;;;5078790;28;20044;-42
2021/01/21 03:45:28;;;;;;;2.70;2.00;;;18.40;45.50;;;;;;5085087;28;20044;-43
2021/01/21 03:47:54;;;;;;;2.95;2.08;;;18.40;45.50;;;;;;5081205;28;20102;-41
2021/01/21 03:50:21;;;;;;;2.30;1.92;;;18.40;45.50;;;;;;5082427;28;20480;-45
2021/01/21 03:52:48;;;;;;;3.03;2.15;;;18.40;45.50;;;;;;5084643;28;20051;-41
2021/01/21 03:55:14;;;;;;;2.55;2.05;;;18.40;45.50;;;;;;5087412;28;20040;-44
2021/01/21 03:57:41;;;;;;;2.83;2.30;;;18.40;45.50;;;;;;5077776;28;20040;-40
2021/01/21 04:00:08;;;;;;;2.17;1.75;;;18.40;45.50;;;;;;5078659;28;20609;-41
2021/01/21 04:02:36;;;;;;;3.10;2.10;;;18.40;45.50;;;;;;5080567;28;20055;-42
2021/01/21 04:05:04;;;;;;;2.78;1.95;;;18.40;45.50;;;;;;5083569;28;20044;-43
2021/01/21 04:07:30;;;;;;;2.03;1.80;;;18.40;45.50;;;;;;5081840;28;20079;-45
2021/01/21 04:09:57;;;;;;;4.05;2.30;;;18.40;45.50;;;;;;5080205;28;20067;-43
2021/01/21 04:12:23;;;;;;;2.88;2.25;;;18.40;45.50;;;;;;5085761;28;20071;-40
2021/01/21 04:14:50;;;;;;;2.28;1.95;;;18.40;45.50;;;;;;5076772;28;20102;-40
2021/01/21 04:17:16;;;;;;;2.50;2.22;;;18.40;45.50;;;;;;5077738;28;20052;-42
2021/01/21 04:19:43;;;;;;;2.10;1.88;;;18.40;45.50;;;;;;5074826;28;20060;-40
2021/01/21 04:22:09;;;;;;;2.95;2.30;;;18.40;45.50;;;;;;5082498;28;20072;-40
2021/01/21 04:24:37;;;;;;;2.60;1.90;;;18.40;46.10;;;;;;5090731;28;20549;-40
2021/01/21 04:27:04;;;;;;;2.30;2.10;;;18.40;45.50;;;;;;5080179;28;20056;-40
2021/01/21 04:29:30;;;;;;;2.20;1.98;;;18.40;45.50;;;;;;5082383;28;20056;-40
2021/01/21 04:31:57;;;;;;;1.98;1.77;;;18.40;45.50;;;;;;5084138;28;20127;-42
2021/01/21 04:34:23;;;;;;;3.20;2.30;;;18.40;45.50;;;;;;5088353;28;20044;-41
2021/01/21 04:36:50;;;;;;;2.67;2.20;;;18.40;45.50;;;;;;5078907;28;20102;-42
2021/01/21 04:39:17;;;;;;;2.92;2.15;;;18.40;45.50;;;;;;5081746;28;20573;-43
2021/01/21 04:41:43;;;;;;;2.42;2.00;;;18.40;45.50;;;;;;5086278;28;20052;-40
2021/01/21 04:44:10;;;;;;;2.92;2.10;;;18.40;45.50;;;;;;5083869;28;20071;-40
2021/01/21 04:46:38;;;;;;;2.40;1.90;;;18.40;45.50;;;;;;5087271;28;20097;-41
2021/01/21 04:49:06;;;;;;;2.55;2.03;;;18.40;45.50;;;;;;5085400;28;20082;-40
2021/01/21 04:51:33;;;;;;;2.33;2.10;;;18.40;45.50;;;;;;5080063;28;20068;-41
2021/01/21 04:54:04;;;;;;;2.22;2.00;;;18.40;45.50;;;;;;5082643;28;20460;-42
2021/01/21 04:56:37;;;;;;;2.33;2.05;;;18.40;45.50;;;;;;5080363;28;20044;-40
2021/01/21 04:59:09;;;;;;;2.88;2.22;;;18.40;45.50;;;;;;5080319;28;20059;-42
2021/01/21 05:01:38;;;;;;;3.08;2.25;;;18.40;45.50;;;;;;5084865;28;20052;-41
2021/01/21 05:04:06;;;;;;;2.78;2.17;;;18.40;45.50;;;;;;5084289;28;20142;-43
2021/01/21 05:06:34;;;;;;;2.78;2.50;;;18.40;45.50;;;;;;5088931;28;20045;-41
2021/01/21 05:09:02;;;;;;;2.58;1.95;;;18.40;45.50;;;;;;5090384;28;20043;-41
2021/01/21 05:11:29;;;;;;;2.10;1.90;;;18.40;45.50;;;;;;5086024;28;20048;-40
2021/01/21 05:13:56;;;;;;;2.70;2.30;;;18.40;45.50;;;;;;5081317;28;20109;-40
2021/01/21 05:16:23;;;;;;;2.50;2.30;;;18.40;45.40;;;;;;5085557;28;20048;-40
2021/01/21 05:18:50;;;;;;;2.78;2.47;;;18.40;45.40;;;;;;5081187;28;20075;-40
2021/01/21 05:21:17;;;;;;;2.67;2.10;;;18.40;45.40;;;;;;5083213;28;20041;-42
2021/01/21 05:23:44;;;;;;;2.35;2.08;;;18.40;45.40;;;;;;5081873;28;20404;-43
2021/01/21 05:26:11;;;;;;;2.90;2.33;;;18.40;45.40;;;;;;5086917;28;20127;-41
2021/01/21 05:28:39;;;;;;;2.63;2.20;;;18.40;45.40;;;;;;5085665;28;20044;-40
2021/01/21 05:31:06;;;;;;;2.55;2.08;;;18.40;45.40;;;;;;5086431;28;20526;-41
2021/01/21 05:33:35;;;;;;;2.45;2.17;;;18.40;45.40;;;;;;5086898;28;20036;-41
2021/01/21 05:36:07;;;;;;;2.83;2.25;;;18.40;45.40;;;;;;5089440;28;20040;-41
2021/01/21 05:38:33;;;;;;;2.78;2.47;;;18.40;45.40;;;;;;5082184;28;20048;-41
2021/01/21 05:41:01;;;;;;;2.53;2.20;;;18.40;45.40;;;;;;5083154;28;20049;-41
2021/01/21 05:43:28;;;;;;;3.20;2.25;;;18.40;45.30;;;;;;5083162;28;20389;-40
2021/01/21 05:45:54;;;;;;;2.15;1.95;;;18.40;45.30;;;;;;5076745;28;20488;-41
2021/01/21 05:48:21;;;;;;;2.40;2.20;;;18.40;45.40;;;;;;5084695;28;20044;-41
2021/01/21 05:50:48;;;;;;;2.88;2.20;;;18.40;45.30;;;;;;5086359;28;20036;-42
2021/01/21 05:53:17;;;;;;;2.30;2.10;;;18.40;45.30;;;;;;5087521;28;20125;-40
2021/01/21 05:55:45;;;;;;;2.38;1.98;;;18.40;45.40;;;;;;5084197;28;20041;-41
2021/01/21 05:58:14;;;;;;;2.10;1.85;;;18.40;45.30;;;;;;5084050;28;20044;-42
2021/01/21 06:00:44;;;;;;;2.20;2.00;;;18.40;45.30;;;;;;5086919;28;20044;-41
2021/01/21 06:03:12;;;;;;;3.40;2.40;;;18.40;45.30;;;;;;5089007;28;20082;-42
2021/01/21 06:05:40;;;;;;;2.42;1.95;;;18.40;45.30;;;;;;5086122;28;20060;-40
2021/01/21 06:08:06;;;;;;;2.38;1.98;;;18.40;45.30;;;;;;5085289;28;20055;-42
2021/01/21 06:10:36;;;;;;;2.78;2.22;;;18.40;45.30;;;;;;5079917;28;20040;-40
2021/01/21 06:13:05;;;;;;;2.70;2.30;;;18.40;45.30;;;;;;5087411;28;20052;-40
2021/01/21 06:15:32;;;;;;;2.60;2.03;;;18.40;45.30;;;;;;5081972;28;20048;-40
2021/01/21 06:17:59;;;;;;;2.25;1.98;;;18.40;45.30;;;;;;5088985;28;20076;-39
2021/01/21 06:20:26;;;;;;;3.00;2.35;;;18.40;45.30;;;;;;5088529;28;20094;-40
2021/01/21 06:22:56;;;;;;;2.72;2.10;;;18.40;45.30;;;;;;5087568;28;20048;-41
2021/01/21 06:25:24;;;;;;;3.30;2.33;;;18.40;45.30;;;;;;5081552;28;20056;-43
2021/01/21 06:27:52;;;;;;;2.90;2.38;;;18.40;45.30;;;;;;5084551;28;20052;-43
2021/01/21 06:30:20;;;;;;;2.95;2.20;;;18.40;45.30;;;;;;5081234;28;20048;-41
2021/01/21 06:33:01;;;;;;;3.03;2.30;;;18.40;45.30;;;;;;5085191;28;20048;-43
2021/01/21 06:35:42;;;;;;;2.47;2.17;;;18.40;45.30;;;;;;5080153;28;20055;-43
2021/01/21 06:38:20;;;;;;;2.88;2.40;;;18.40;45.30;;;;;;5081883;28;20447;-49
2021/01/21 06:40:53;;;;;;;2.88;2.30;;;18.40;45.30;;;;;;5083027;28;20048;-42
2021/01/21 06:43:28;;;;;;;2.10;1.90;;;18.40;45.30;;;;;;5079298;28;20110;-49
2021/01/21 06:45:58;;;;;;;2.35;1.90;;;18.40;45.30;;;;;;5076012;28;20044;-40
2021/01/21 06:48:25;;;;;;;3.13;2.30;;;18.40;45.30;;;;;;5084085;28;20054;-42
2021/01/21 06:50:53;;;;;;;2.42;2.17;;;18.40;45.30;;;;;;5084815;28;20102;-40
2021/01/21 06:53:20;;;;;;;2.35;1.88;;;18.40;45.30;;;;;;5079159;28;20048;-42
2021/01/21 06:55:49;;;;;;;2.63;2.38;;;18.40;45.90;;;;;;5077014;28;20448;-42
2021/01/21 06:58:47;;;;;;;2.75;2.08;;;18.40;45.30;;;;;;5083096;28;20048;-40
2021/01/21 07:01:32;;;;;;;2.42;2.05;;;18.40;45.30;;;;;;5085478;28;20090;-40
2021/01/21 07:04:21;;;;;;;2.78;2.20;;;18.40;45.30;;;;;;5086139;28;20119;-44
2021/01/21 07:07:03;;;;;;;2.80;2.40;;;18.40;45.30;;;;;;5080358;28;20043;-40
2021/01/21 07:09:33;;;;;;;2.22;1.88;;;18.40;45.30;;;;;;5083507;28;20048;-41
2021/01/21 07:12:01;;;;;;;2.33;2.13;;;18.40;45.30;;;;;;5081091;28;20420;-42
2021/01/21 07:14:31;;;;;;;2.28;2.00;;;18.40;45.30;;;;;;5088489;28;20052;-42
2021/01/21 07:17:08;;;;;;;2.47;2.05;;;18.40;45.30;;;;;;5080080;28;20041;-41
2021/01/21 07:19:38;;;;;;;2.55;2.17;;;18.40;45.30;;;;;;5084058;28;20075;-41
2021/01/21 07:22:21;;;;;;;2.65;2.30;;;18.40;45.30;;;;;;5080219;28;20040;-41
2021/01/21 07:24:55;;;;;;;2.70;2.23;;;18.40;45.30;;;;;;5076743;28;20048;-40
2021/01/21 07:27:25;;;;;;;2.22;1.90;;;18.40;45.30;;;;;;5087435;28;20298;-40
2021/01/21 07:30:16;;;;;;;2.63;2.10;;;18.40;45.30;;;;;;5084609;28;20063;-44
2021/01/21 07:32:44;;;;;;;3.40;2.42;;;18.40;45.30;;;;;;5084680;28;20085;-41
2021/01/21 07:35:40;;;;;;;2.20;1.90;;;18.40;45.30;;;;;;5081167;28;20044;-40
2021/01/21 07:38:07;;;;;;;2.58;2.03;;;18.40;45.30;;;;;;5070547;28;20040;-40
2021/01/21 07:40:41;;;;;;;2.85;2.28;;;18.40;45.30;;;;;;5080560;28;20048;-39
2021/01/21 07:43:07;;;;;;;2.70;2.40;;;18.40;45.30;;;;;;5081934;28;20500;-41
2021/01/21 07:45:34;;;;;;;2.58;2.33;;;18.40;45.30;;;;;;5083204;28;20084;-41
2021/01/21 07:48:20;;;;;;;2.00;1.80;;;18.40;45.30;;;;;;5083630;28;20048;-40
2021/01/21 07:50:48;;;;;;;2.92;2.25;;;18.40;45.30;;;;;;5083767;28;20488;-41
2021/01/21 07:53:21;;;;;;;3.17;2.30;;;18.40;45.30;;;;;;5083620;28;20180;-40
2021/01/21 07:55:49;;;;;;;2.45;2.20;;;18.40;45.30;;;;;;5079619;28;20044;-40
2021/01/21 07:58:23;;;;;;;3.03;2.28;;;18.40;45.20;;;;;;5087777;28;20079;-40
2021/01/21 08:00:52;;;;;;;2.72;2.20;;;18.40;45.20;;;;;;5087473;28;20051;-40
2021/01/21 08:03:40;;;;;;;2.75;2.20;;;18.40;45.20;;;;;;5080652;28;20403;-41
2021/01/21 08:06:11;;;;;;;2.90;2.42;;;18.40;45.30;;;;;;5081592;28;20140;-40
2021/01/21 08:08:51;;;;;;;2.60;2.10;;;18.40;45.30;;;;;;5088836;28;20048;-40
2021/01/21 08:11:20;;;;;;;2.67;2.17;;;18.40;45.20;;;;;;5081696;28;20048;-40
2021/01/21 08:13:47;;;;;;;2.55;2.20;;;18.40;45.20;;;;;;5082845;28;20488;-42
2021/01/21 08:16:15;;;;;;;2.58;2.13;;;18.40;45.20;;;;;;5080966;28;20467;-40
2021/01/21 08:18:43;;;;;;;2.50;2.25;;;18.40;45.50;;;;;;5087844;28;20047;-41
2021/01/21 08:21:19;;;;;;;2.25;2.00;;;18.40;45.30;;;;;;5080873;28;20155;-40
2021/01/21 08:24:09;;;;;;;2.08;1.77;;;18.40;45.20;;;;;;5076327;28;20487;-40
2021/01/21 08:26:37;;;;;;;2.38;2.17;;;18.40;45.20;;;;;;5085581;28;20051;-42
2021/01/21 08:29:12;;;;;;;2.30;2.03;;;18.40;45.20;;;;;;5082201;28;20056;-40
2021/01/21 08:31:49;;;;;;;2.60;2.00;;;18.40;45.20;;;;;;5076567;28;20047;-40
2021/01/21 08:34:21;;;;;;;2.63;2.17;;;18.40;45.20;;;;;;5084005;28;20048;-43
2021/01/21 08:37:01;;;;;;;2.80;2.10;;;18.40;45.20;;;;;;5084582;28;20072;-41
2021/01/21 08:39:27;;;;;;;2.60;2.10;;;18.40;45.20;;;;;;5087200;28;20079;-40
2021/01/21 08:41:54;;;;;;;3.08;2.30;;;18.40;45.20;;;;;;5085049;28;20053;-43
2021/01/21 08:44:22;;;;;;;2.60;2.05;;;18.40;45.20;;;;;;5087695;28;20056;-40
2021/01/21 08:46:59;;;;;;;3.33;2.50;;;18.40;45.30;;;;;;5089926;28;20063;-41
2021/01/21 08:49:29;;;;;;;3.58;2.65;;;18.40;45.30;;;;;;5081888;28;20138;-42
2021/01/21 08:52:09;;;;;;;5.18;2.30;;;18.40;45.30;;;;;;5084801;28;20044;-41
2021/01/21 08:54:37;;;;;;;3.70;2.70;;;18.40;45.30;;;;;;5084337;28;20040;-42
2021/01/21 08:57:14;;;;;;;2.97;2.40;;;18.40;45.30;;;;;;5087999;28;20097;-40
2021/01/21 08:59:42;;;;;;;2.60;2.20;;;18.40;45.30;;;;;;5085132;28;20048;-40
2021/01/21 09:02:11;;;;;;;2.45;2.20;;;18.40;45.30;;;;;;5086483;28;20096;-39
2021/01/21 09:04:39;;;;;;;2.42;2.08;;;18.40;45.30;;;;;;5083545;28;20131;-43
2021/01/21 09:07:08;;;;;;;2.97;2.30;;;18.40;45.30;;;;;;5078700;28;20052;-43
2021/01/21 09:09:40;;;;;;;3.13;2.50;;;18.40;45.20;;;;;;5089365;28;20411;-41
2021/01/21 09:12:22;;;;;;;3.05;2.40;;;18.40;45.20;;;;;;5086394;28;20439;-43
2021/01/21 09:15:08;;;;;;;2.80;2.30;;;18.40;45.20;;;;;;5086637;28;20049;-40
2021/01/21 09:17:37;;;;;;;3.42;2.28;;;18.40;45.20;;;;;;5082575;28;20076;-41
2021/01/21 09:20:22;;;;;;;2.75;2.15;;;18.40;45.20;;;;;;5086347;28;20040;-40
2021/01/21 09:23:20;;;;;;;4.18;2.47;;;18.40;45.20;;;;;;5083274;28;20405;-40
2021/01/21 09:25:48;;;;;;;2.92;2.20;;;18.40;45.20;;;;;;5077492;28;20048;-43
2021/01/21 09:28:16;;;;;;;2.42;2.17;;;18.40;45.20;;;;;;5083238;28;20102;-40
2021/01/21 09:30:43;;;;;;;2.47;2.28;;;18.40;45.20;;;;;;5087829;28;20040;-41
2021/01/21 09:33:10;;;;;;;2.75;2.25;;;18.40;45.20;;;;;;5088905;28;20056;-41
2021/01/21 09:35:40;;;;;;;2.55;2.15;;;18.40;45.20;;;;;;5085359;28;20055;-40
2021/01/21 09:38:07;;;;;;;2.65;2.40;;;18.40;45.10;;;;;;5078181;28;20094;-40
2021/01/21 09:40:35;;;;;;;3.03;2.45;;;18.50;45.30;;;;;;5090378;28;20052;-40
2021/01/21 09:43:04;;;;;;;2.88;2.50;;;18.40;45.10;;;;;;5088405;28;20102;-41
2021/01/21 09:45:32;;;;;;;3.20;2.45;;;18.40;45.10;;;;;;5083852;28;20139;-40
2021/01/21 09:48:01;;;;;;;2.95;2.45;;;18.40;45.10;;;;;;5078407;28;20048;-43
2021/01/21 09:50:29;;;;;;;2.78;2.30;;;18.40;45.10;;;;;;5085537;28;20047;-41
2021/01/21 09:52:55;;;;;;;3.42;2.78;;;18.50;45.20;;;;;;5086568;28;20040;-41
2021/01/21 09:55:22;;;;;;;3.03;2.45;;;18.50;45.20;;;;;;5084565;28;20101;-45
2021/01/21 09:57:50;;;;;;;2.42;2.22;;;18.50;45.20;;;;;;5085751;28;20200;-40
2021/01/21 10:00:18;;;;;;;2.35;2.15;;;18.50;45.20;;;;;;5088672;28;20056;-39
2021/01/21 10:02:44;;;;;;;2.35;2.15;;;18.50;45.20;;;;;;5084069;28;20562;-41
2021/01/21 10:05:13;;;;;;;2.72;2.35;;;18.50;45.20;;;;;;5084740;28;20131;-39
2021/01/21 10:07:39;;;;;;;3.58;2.30;;;18.50;45.20;;;;;;5084048;28;20055;-40
2021/01/21 10:10:06;;;;;;;2.83;2.38;;;18.50;45.20;;;;;;5081885;28;20047;-40
2021/01/21 10:12:33;;;;;;;2.67;2.35;;;18.50;45.20;;;;;;5087823;28;20094;-40
2021/01/21 10:15:01;;;;;;;2.30;2.05;;;18.50;45.20;;;;;;5085659;28;20044;-40
2021/01/21 10:17:28;;;;;;;2.78;2.38;;;18.50;45.10;;;;;;5085785;28;20407;-40
2021/01/21 10:19:55;;;;;;;2.75;2.40;;;18.50;45.10;;;;;;5083635;28;20101;-40
2021/01/21 10:22:22;;;;;;;3.80;2.60;;;18.50;45.10;;;;;;5080738;28;20045;-40
2021/01/21 10:24:48;;;;;;;3.00;2.15;;;18.50;45.70;;;;;;5086115;28;20093;-41
2021/01/21 10:27:15;;;;;;;3.20;2.33;;;18.50;45.10;;;;;;5083029;28;20105;-40
2021/01/21 10:29:42;;;;;;;2.20;2.00;;;18.50;45.10;;;;;;5085980;28;20473;-40
2021/01/21 10:32:08;;;;;;;2.58;2.38;;;18.50;45.10;;;;;;5080888;28;20098;-39
2021/01/21 10:34:36;;;;;;;2.70;2.30;;;18.50;45.10;;;;;;5083901;28;20048;-40
2021/01/21 10:37:04;;;;;;;3.00;2.33;;;18.50;45.10;;;;;;5088181;28;20097;-40
2021/01/21 10:39:30;;;;;;;3.15;2.20;;;18.50;45.10;;;;;;5089249;28;21586;-42
2021/01/21 10:41:57;;;;;;;3.65;2.70;;;18.50;45.10;;;;;;5086907;28;20053;-40
2021/01/21 10:44:24;;;;;;;3.30;2.70;;;18.50;45.10;;;;;;5083834;28;20068;-40
2021/01/21 10:46:50;;;;;;;3.15;2.47;;;18.50;45.10;;;;;;5082649;28;20062;-40
2021/01/21 10:49:17;;;;;;;3.38;2.40;;;18.50;45.10;;;;;;5082947;28;20049;-40
2021/01/21 10:51:45;;;;;;;2.60;2.40;;;18.50;45.10;;;;;;5087362;28;20112;-40
2021/01/21 10:54:16;;;;;;;2.67;2.03;;;18.50;45.10;;;;;;5089594;28;20095;-40
2021/01/21 10:56:42;;;;;;;3.15;2.08;;;18.50;45.10;;;;;;5083319;28;20045;-41
2021/01/21 10:59:09;;;;;;;3.35;2.33;;;18.50;45.10;;;;;;5078335;28;20087;-40
2021/01/21 11:01:36;;;;;;;2.65;2.08;;;18.60;45.20;;;;;;5086516;28;20048;-40
2021/01/21 11:04:04;;;;;;;3.13;2.28;;;18.60;45.10;;;;;;5087670;28;20041;-40
2021/01/21 11:06:31;;;;;;;2.90;2.20;;;18.60;45.10;;;;;;5090846;28;20079;-41
2021/01/21 11:08:57;;;;;;;2.55;2.30;;;18.50;45.10;;;;;;5080389;28;20040;-40
2021/01/21 11:11:24;;;;;;;2.85;2.45;;;18.60;45.10;;;;;;5084212;28;20377;-40
2021/01/21 11:13:53;;;;;;;2.85;2.30;;;18.50;45.10;;;;;;5080014;28;20044;-42
2021/01/21 11:16:20;;;;;;;3.22;2.30;;;18.60;45.10;;;;;;5080450;28;20048;-43
2021/01/21 11:18:47;;;;;;;2.42;2.20;;;18.60;45.10;;;;;;5082366;28;20075;-46
2021/01/21 11:21:14;;;;;;;3.42;2.40;;;18.50;45.10;;;;;;5074105;28;20048;-40
2021/01/21 11:23:40;;;;;;;2.88;2.58;;;18.50;45.70;;;;;;5083670;28;20071;-40
2021/01/21 11:26:07;;;;;;;2.65;2.08;;;18.60;45.70;;;;;;5074347;28;20049;-43
2021/01/21 11:28:33;;;;;;;2.58;2.33;;;18.60;45.10;;;;;;5080410;28;20052;-40
2021/01/21 11:31:00;;;;;;;3.08;2.33;;;18.60;45.20;;;;;;5077905;28;20127;-45
2021/01/21 11:33:27;;;;;;;3.20;2.50;;;18.50;45.10;;;;;;5078759;28;20040;-40
2021/01/21 11:36:06;;;;;;;3.17;2.30;;;18.50;45.10;;;;;;5083167;28;20773;-40
2021/01/21 11:38:32;;;;;;;2.53;2.30;;;18.60;45.20;;;;;;5076737;28;20381;-44
2021/01/21 11:40:59;;;;;;;2.92;2.20;;;18.50;45.10;;;;;;5082077;28;20113;-40
2021/01/21 11:43:25;;;;;;;3.30;2.38;;;18.60;45.20;;;;;;5077747;28;20048;-41
2021/01/21 11:45:52;;;;;;;2.50;2.17;;;18.50;45.10;;;;;;5079209;28;20052;-40
2021/01/21 11:48:19;;;;;;;2.83;2.30;;;18.60;45.10;;;;;;5086863;28;20452;-40
2021/01/21 11:50:45;;;;;;;2.60;2.33;;;18.60;45.70;;;;;;5081968;28;20098;-40
2021/01/21 11:53:12;;;;;;;3.00;1.98;;;18.60;45.10;;;;;;5075339;28;20048;-45
2021/01/21 11:55:39;;;;;;;3.08;2.47;;;18.60;45.10;;;;;;5080536;28;20135;-41
2021/01/21 11:58:06;;;;;;;2.95;2.30;;;18.60;45.10;;;;;;5077564;28;20067;-41
2021/01/21 12:00:32;;;;;;;3.22;2.40;;;18.60;45.10;;;;;;5082581;28;20068;-41
2021/01/21 12:02:59;;;;;;;2.53;2.28;;;18.60;45.10;;;;;;5078068;28;20044;-40
2021/01/21 12:05:25;;;;;;;2.63;2.17;;;18.60;45.10;;;;;;5085193;28;20044;-40
2021/01/21 12:07:52;;;;;;;2.63;2.10;;;18.60;45.10;;;;;;5090430;28;20048;-40
2021/01/21 12:10:19;;;;;;;3.65;2.60;;;18.60;45.10;;;;;;5083964;28;20044;-40
2021/01/21 12:12:48;;;;;;;2.88;2.50;;;18.60;45.10;;;;;;5084546;28;20071;-39
2021/01/21 12:15:15;;;;;;;2.08;1.88;;;18.60;45.10;;;;;;5086229;28;20046;-45
2021/01/21 12:17:42;;;;;;;3.10;2.75;;;18.60;45.10;;;;;;5081009;28;20040;-41
2021/01/21 12:20:10;;;;;;;4.28;2.30;;;18.60;45.10;;;;;;5086247;28;20054;-41
2021/01/21 12:22:37;;;;;;;2.65;2.30;;;18.60;45.10;;;;;;5086541;28;20492;-41
2021/01/21 12:25:04;;;;;;;2.72;2.13;;;18.60;45.10;;;;;;5082451;28;20048;-41
2021/01/21 12:27:31;;;;;;;2.70;2.30;;;18.60;45.10;;;;;;5085409;28;20469;-42
2021/01/21 12:29:58;;;;;;;3.58;2.65;;;18.60;45.10;;;;;;5085910;28;20040;-40
2021/01/21 12:32:26;;;;;;;2.55;2.30;;;18.60;45.10;;;;;;5085072;28;20224;-40
2021/01/21 12:34:53;;;;;;;2.60;2.28;;;18.60;45.10;;;;;;5090482;28;20051;-40
2021/01/21 12:37:19;;;;;;;2.85;2.53;;;18.60;45.10;;;;;;5083744;28;20049;-40
2021/01/21 12:39:46;;;;;;;2.50;2.22;;;18.60;45.10;;;;;;5089921;28;20048;-40
2021/01/21 12:42:13;;;;;;;3.15;2.80;;;18.60;45.10;;;;;;5090464;28;20450;-40
2021/01/21 12:44:40;;;;;;;2.95;2.28;;;18.60;45.10;;;;;;5082785;28;20472;-40
2021/01/21 12:47:07;;;;;;;2.30;2.10;;;18.60;45.10;;;;;;5086907;28;20050;-40
2021/01/21 12:49:36;;;;;;;3.05;2.40;;;18.60;45.10;;;;;;5083129;28;20075;-41
2021/01/21 12:52:04;;;;;;;3.35;2.20;;;18.60;45.10;;;;;;5083344;28;20044;-41
2021/01/21 12:54:31;;;;;;;2.63;2.35;;;18.60;45.10;;;;;;5085491;28;20052;-41
2021/01/21 12:56:58;;;;;;;2.83;2.30;;;18.60;45.10;;;;;;5084662;28;20052;-40
2021/01/21 12:59:25;;;;;;;3.28;2.42;;;18.60;45.10;;;;;;5080455;28;20559;-43